Orlando, Florida
Traffic Map
Current Weather Conditions
Orlando, Florida
Clear
Clear
50°
Feels Like: 50°
Wind Chill: 50° Ceiling: Unl
Heat Index: 50° Visibility: 10mi
Dew Point: 44° Wind: 3mph
Humidity: 80% Direction: 60° (ENE)
Pressure: 30.25in Gusts: 0mph
Raw Report DataKORL 300953Z AUTO 06003KT 10SM CLR 10/07 A3025 RMK AO2 SLP249 T01000067
Traffic Incident Summary
Active as of:
Severity:
Category:
InformationThere was an issue retrieving the traffic information for this location. Please try a different location or try again shortly.
Advertisements
Track Severe Weather on mobile